createdAt,value
2022-11-28T00:01:30.232Z,6.33
2022-11-28T00:03:57.575Z,6.60
2022-11-28T00:06:26.486Z,6.89
2022-11-28T00:08:54.325Z,8.94
2022-11-28T00:11:21.760Z,8.51
2022-11-28T00:13:49.022Z,7.64
2022-11-28T00:16:21.724Z,8.08
2022-11-28T00:18:50.343Z,8.90
2022-11-28T00:21:19.315Z,9.00
2022-11-28T00:23:47.934Z,9.02
2022-11-28T00:26:19.757Z,9.59
2022-11-28T00:28:47.771Z,9.86
2022-11-28T00:31:18.679Z,8.53
2022-11-28T00:33:46.323Z,9.53
2022-11-28T00:36:14.206Z,9.51
2022-11-28T00:38:42.077Z,9.25
2022-11-28T00:41:11.494Z,9.48
2022-11-28T00:43:38.797Z,8.64
2022-11-28T00:46:06.794Z,9.91
2022-11-28T00:48:35.304Z,10.03
2022-11-28T00:51:15.658Z,9.69
2022-11-28T00:53:44.128Z,9.66
2022-11-28T00:56:13.435Z,9.52
2022-11-28T00:58:41.681Z,9.98
2022-11-28T01:01:21.858Z,9.98
2022-11-28T01:03:51.243Z,9.75
2022-11-28T01:06:27.829Z,10.14
2022-11-28T01:08:55.763Z,9.01
2022-11-28T01:11:23.440Z,9.38
2022-11-28T01:13:50.733Z,9.67
2022-11-28T01:16:18.413Z,10.61
2022-11-28T01:18:45.559Z,11.23
2022-11-28T01:21:12.933Z,11.50
2022-11-28T01:23:39.956Z,11.54
2022-11-28T01:26:12.178Z,9.45
2022-11-28T01:28:39.671Z,10.46
2022-11-28T01:31:10.011Z,10.03
2022-11-28T01:33:38.131Z,10.77
2022-11-28T01:36:06.449Z,11.40
2022-11-28T01:38:34.521Z,10.92
2022-11-28T01:41:02.258Z,10.83
2022-11-28T01:43:29.345Z,10.45
2022-11-28T01:45:57.274Z,10.70
2022-11-28T01:48:34.512Z,10.98
2022-11-28T01:51:06.195Z,11.11
2022-11-28T01:53:36.696Z,10.26
2022-11-28T01:56:16.030Z,9.55
2022-11-28T01:58:49.373Z,9.50
2022-11-28T02:01:18.412Z,10.08
2022-11-28T02:03:48.256Z,7.99
2022-11-28T02:06:19.273Z,8.07
2022-11-28T02:08:46.528Z,10.20
2022-11-28T02:11:42.170Z,10.99
2022-11-28T02:14:27.630Z,10.01
2022-11-28T02:17:34.806Z,11.22
2022-11-28T02:20:29.475Z,11.83
2022-11-28T02:23:26.079Z,11.21
2022-11-28T02:26:20.880Z,8.85
2022-11-28T02:29:07.170Z,10.67
2022-11-28T02:31:37.449Z,11.52
2022-11-28T02:34:19.258Z,10.62
2022-11-28T02:37:01.087Z,8.89
2022-11-28T02:40:14.847Z,9.51
2022-11-28T02:42:55.251Z,8.98
2022-11-28T02:45:37.085Z,8.91
2022-11-28T02:48:44.294Z,9.65
2022-11-28T02:51:16.151Z,9.36
2022-11-28T02:53:46.630Z,9.79
2022-11-28T02:56:14.326Z,10.28
2022-11-28T02:58:41.451Z,9.90
2022-11-28T03:01:19.508Z,8.30
2022-11-28T03:04:40.602Z,8.58
2022-11-28T03:07:49.646Z,7.22
2022-11-28T03:10:31.943Z,8.34
2022-11-28T03:13:44.207Z,7.00
2022-11-28T03:16:11.247Z,7.16
2022-11-28T03:18:45.249Z,6.00
2022-11-28T03:21:38.734Z,6.91
2022-11-28T03:24:13.227Z,7.49
2022-11-28T03:26:45.474Z,8.12
2022-11-28T03:29:21.128Z,6.95
2022-11-28T03:31:54.180Z,6.20
2022-11-28T03:34:25.196Z,8.18
2022-11-28T03:37:01.675Z,7.82
2022-11-28T03:39:35.251Z,8.50
2022-11-28T03:42:21.427Z,6.72
2022-11-28T03:45:16.201Z,7.46
2022-11-28T03:47:47.620Z,7.74
2022-11-28T03:50:21.019Z,7.73
2022-11-28T03:52:57.049Z,7.38
2022-11-28T03:55:38.088Z,7.19
2022-11-28T03:58:43.431Z,7.44
2022-11-28T04:01:18.268Z,8.88
2022-11-28T04:04:06.163Z,9.61
2022-11-28T04:07:01.683Z,8.96
2022-11-28T04:09:54.836Z,7.74
2022-11-28T04:12:35.522Z,7.40
2022-11-28T04:15:17.314Z,8.35
2022-11-28T04:17:58.754Z,8.75
2022-11-28T04:20:35.430Z,7.98
2022-11-28T04:23:08.437Z,7.92
2022-11-28T04:25:40.367Z,7.43
2022-11-28T04:28:13.639Z,8.14
2022-11-28T04:30:44.691Z,8.13
2022-11-28T04:33:15.721Z,7.76
2022-11-28T04:35:50.011Z,5.82
2022-11-28T04:38:18.726Z,8.15
2022-11-28T04:40:59.708Z,6.74
2022-11-28T04:43:34.037Z,8.01
2022-11-28T04:46:10.045Z,8.16
2022-11-28T04:48:38.021Z,8.04
2022-11-28T04:51:18.447Z,7.63
2022-11-28T04:53:59.555Z,8.33
2022-11-28T04:56:34.727Z,6.93
2022-11-28T04:59:06.730Z,8.08
2022-11-28T05:01:36.571Z,8.96
2022-11-28T05:04:04.362Z,8.69
2022-11-28T05:06:34.469Z,7.24
2022-11-28T05:09:02.155Z,7.88
2022-11-28T05:11:29.521Z,7.78
2022-11-28T05:13:56.881Z,8.59
2022-11-28T05:16:24.258Z,9.22
2022-11-28T05:18:52.385Z,9.56
2022-11-28T05:21:19.483Z,7.91
2022-11-28T05:23:47.317Z,9.76
2022-11-28T05:26:20.457Z,9.50
2022-11-28T05:28:51.597Z,10.40
2022-11-28T05:31:21.126Z,8.41
2022-11-28T05:33:48.580Z,8.96
2022-11-28T05:36:17.518Z,9.75
2022-11-28T05:38:45.245Z,10.26
2022-11-28T05:41:27.574Z,10.52
2022-11-28T05:43:56.557Z,9.37
2022-11-28T05:46:24.486Z,10.00
2022-11-28T05:48:52.588Z,9.85
2022-11-28T05:51:19.882Z,10.33
2022-11-28T05:53:47.318Z,9.70
2022-11-28T05:56:18.301Z,9.45
2022-11-28T05:58:46.059Z,9.37
2022-11-28T06:01:19.273Z,10.63
2022-11-28T06:03:47.361Z,10.82
2022-11-28T06:06:20.101Z,8.38
2022-11-28T06:08:49.108Z,9.93
2022-11-28T06:11:16.928Z,8.74
2022-11-28T06:13:46.561Z,9.51
2022-11-28T06:16:16.526Z,10.63
2022-11-28T06:18:44.342Z,9.72
2022-11-28T06:21:13.102Z,10.06
2022-11-28T06:23:41.786Z,8.48
2022-11-28T06:26:15.055Z,8.68
2022-11-28T06:28:42.795Z,7.20
2022-11-28T06:31:12.373Z,7.63
2022-11-28T06:33:40.423Z,9.64
2022-11-28T06:36:08.202Z,10.70
2022-11-28T06:38:35.800Z,11.21
2022-11-28T06:41:08.639Z,9.59
2022-11-28T06:43:36.832Z,9.95
2022-11-28T06:46:04.569Z,10.74
2022-11-28T06:48:32.804Z,10.76
2022-11-28T06:51:06.181Z,11.68
2022-11-28T06:53:34.419Z,11.81
2022-11-28T06:56:14.301Z,12.15
2022-11-28T06:58:42.608Z,11.67
2022-11-28T07:01:20.667Z,10.99
2022-11-28T07:03:49.065Z,9.79
2022-11-28T07:06:18.705Z,11.38
2022-11-28T07:08:46.885Z,12.03
2022-11-28T07:11:20.423Z,12.32
2022-11-28T07:13:48.947Z,12.59
2022-11-28T07:16:19.768Z,12.62
2022-11-28T07:18:47.659Z,12.79
2022-11-28T07:21:15.706Z,10.65
2022-11-28T07:23:44.371Z,11.02
2022-11-28T07:26:14.348Z,11.76
2022-11-28T07:28:43.142Z,9.45
2022-11-28T07:31:12.963Z,8.00
2022-11-28T07:33:43.157Z,9.14
2022-11-28T07:36:13.710Z,9.54
2022-11-28T07:38:41.217Z,9.44
2022-11-28T07:41:11.409Z,9.77
2022-11-28T07:43:40.762Z,10.57
2022-11-28T07:46:10.979Z,11.71
2022-11-28T07:48:38.979Z,10.56
2022-11-28T07:51:27.582Z,9.97
2022-11-28T07:53:55.434Z,10.93
2022-11-28T07:56:25.601Z,11.37
2022-11-28T07:58:53.371Z,10.92
2022-11-28T08:01:25.827Z,9.17
2022-11-28T08:03:53.723Z,11.40
2022-11-28T08:06:23.420Z,12.50
2022-11-28T08:08:52.266Z,13.13
2022-11-28T08:11:21.031Z,13.39
2022-11-28T08:13:49.529Z,13.77
2022-11-28T08:16:20.514Z,13.72
2022-11-28T08:18:49.549Z,14.09
2022-11-28T08:21:19.567Z,13.64
2022-11-28T08:23:47.347Z,12.49
2022-11-28T08:26:16.912Z,12.77
2022-11-28T08:28:44.815Z,12.52
2022-11-28T08:31:20.411Z,13.48
2022-11-28T08:33:49.814Z,11.83
2022-11-28T08:36:19.613Z,12.64
2022-11-28T08:39:03.334Z,12.66
2022-11-28T08:41:35.550Z,12.13
2022-11-28T08:44:02.957Z,13.48
2022-11-28T08:46:30.827Z,13.88
2022-11-28T08:48:59.389Z,14.01
2022-11-28T08:51:26.471Z,12.78
2022-11-28T08:53:59.567Z,13.65
2022-11-28T08:56:27.475Z,12.17
2022-11-28T08:58:55.761Z,11.34
2022-11-28T09:01:25.517Z,11.98
2022-11-28T09:03:54.688Z,12.22
2022-11-28T09:06:23.064Z,12.20
2022-11-28T09:08:51.687Z,12.87
2022-11-28T09:11:20.517Z,13.45
2022-11-28T09:13:48.578Z,14.44
2022-11-28T09:16:16.007Z,12.82
2022-11-28T09:18:43.548Z,13.24
2022-11-28T09:21:13.229Z,11.97
2022-11-28T09:23:42.968Z,11.75
2022-11-28T09:26:16.654Z,11.76
2022-11-28T09:28:44.480Z,12.78
2022-11-28T09:31:15.248Z,13.62
2022-11-28T09:33:43.885Z,13.54
2022-11-28T09:36:13.712Z,13.04
2022-11-28T09:38:41.714Z,14.03
2022-11-28T09:41:33.101Z,12.47
2022-11-28T09:44:20.794Z,12.62
2022-11-28T09:46:50.688Z,13.58
2022-11-28T09:49:40.010Z,12.35
2022-11-28T09:52:25.149Z,11.97
2022-11-28T09:55:30.074Z,11.86
2022-11-28T09:57:57.644Z,11.22
2022-11-28T10:00:37.842Z,12.83
2022-11-28T10:03:21.430Z,13.11
2022-11-28T10:06:03.070Z,13.45
2022-11-28T10:08:32.997Z,14.90
2022-11-28T10:11:32.957Z,14.28
2022-11-28T10:14:22.005Z,15.22
2022-11-28T10:17:01.086Z,14.56
2022-11-28T10:20:01.357Z,15.59
2022-11-28T10:22:55.570Z,15.80
2022-11-28T10:25:27.381Z,16.27
2022-11-28T10:27:57.363Z,16.09
2022-11-28T10:30:29.260Z,16.19
2022-11-28T10:33:19.455Z,13.83
2022-11-28T10:35:56.988Z,14.73
2022-11-28T10:38:27.695Z,14.71
2022-11-28T10:41:05.091Z,14.58
2022-11-28T10:44:05.427Z,12.73
2022-11-28T10:46:32.641Z,13.87
2022-11-28T10:49:27.006Z,14.08
2022-11-28T10:52:18.677Z,13.41
2022-11-28T10:54:54.750Z,13.32
2022-11-28T10:57:27.868Z,14.61
2022-11-28T11:00:20.826Z,14.03
2022-11-28T11:02:57.012Z,13.73
2022-11-28T11:05:28.057Z,13.77
2022-11-28T11:08:18.207Z,14.56
2022-11-28T11:11:09.122Z,15.51
2022-11-28T11:13:57.973Z,16.37
2022-11-28T11:16:25.772Z,16.92
2022-11-28T11:18:55.900Z,17.12
2022-11-28T11:21:26.093Z,16.74
2022-11-28T11:24:18.642Z,16.81
2022-11-28T11:26:49.466Z,16.96
2022-11-28T11:29:28.960Z,16.14
2022-11-28T11:32:03.738Z,15.57
2022-11-28T11:34:42.977Z,15.72
2022-11-28T11:37:37.332Z,15.52
2022-11-28T11:40:32.898Z,16.05
2022-11-28T11:43:01.710Z,15.73
2022-11-28T11:45:35.162Z,15.60
2022-11-28T11:48:04.485Z,15.89
2022-11-28T11:50:33.421Z,16.36
2022-11-28T11:53:03.747Z,16.55
2022-11-28T11:55:34.571Z,16.48
2022-11-28T11:58:06.134Z,16.75
2022-11-28T12:00:39.265Z,16.94
2022-11-28T12:03:27.449Z,16.22
2022-11-28T12:06:13.637Z,16.77
2022-11-28T12:09:07.655Z,17.22
2022-11-28T12:14:36.831Z,17.87
2022-11-28T12:17:58.594Z,17.18
2022-11-28T12:20:41.782Z,17.55
2022-11-28T12:23:21.046Z,17.41
2022-11-28T12:25:48.706Z,17.88
2022-11-28T12:28:15.733Z,17.86
2022-11-28T12:31:21.099Z,17.40
2022-11-28T12:34:32.179Z,17.36
2022-11-28T12:37:11.061Z,15.84
2022-11-28T12:40:18.222Z,16.42
2022-11-28T12:42:53.774Z,16.12
2022-11-28T12:45:35.089Z,17.05
2022-11-28T12:48:21.849Z,17.75
2022-11-28T12:51:23.554Z,17.61
2022-11-28T12:54:00.640Z,18.09
2022-11-28T12:56:39.556Z,17.85
2022-11-28T12:59:28.359Z,17.95
2022-11-28T13:02:19.119Z,17.68
2022-11-28T13:05:05.369Z,17.24
2022-11-28T13:08:15.634Z,17.40
2022-11-28T13:10:51.655Z,17.71
2022-11-28T13:13:27.639Z,17.94
2022-11-28T13:16:25.141Z,18.29
2022-11-28T13:19:26.908Z,15.50
2022-11-28T13:22:12.867Z,14.36
2022-11-28T13:24:52.832Z,14.22
2022-11-28T13:27:42.059Z,12.70
2022-11-28T13:30:26.316Z,13.59
2022-11-28T13:33:06.094Z,11.46
2022-11-28T13:35:35.361Z,12.81
2022-11-28T13:41:35.341Z,11.70
2022-11-28T13:44:08.505Z,11.84
2022-11-28T13:46:35.852Z,11.51
2022-11-28T13:49:15.577Z,11.88
2022-11-28T13:51:48.095Z,11.93
2022-11-28T13:54:18.338Z,10.77
2022-11-28T13:57:27.188Z,11.24
2022-11-28T14:00:02.144Z,11.77
2022-11-28T14:02:42.398Z,10.22
2022-11-28T14:05:33.896Z,10.37
2022-11-28T14:08:02.807Z,10.51
2022-11-28T14:11:09.052Z,10.95
2022-11-28T14:13:54.749Z,11.18
2022-11-28T14:17:00.388Z,11.40
2022-11-28T14:19:55.107Z,10.97
2022-11-28T14:22:41.227Z,10.29
2022-11-28T14:25:13.936Z,11.23
2022-11-28T14:27:54.097Z,10.14
2022-11-28T14:30:42.324Z,9.67
2022-11-28T14:33:21.774Z,10.60
2022-11-28T14:35:54.863Z,9.65
2022-11-28T14:38:31.925Z,9.73
2022-11-28T14:41:03.487Z,9.19
2022-11-28T14:43:53.083Z,9.48
2022-11-28T14:46:29.681Z,9.55
2022-11-28T14:48:59.949Z,8.94
2022-11-28T14:51:48.825Z,8.80
2022-11-28T14:54:42.295Z,9.31
2022-11-28T14:57:45.133Z,9.65
2022-11-28T15:00:23.566Z,9.12
2022-11-28T15:03:05.329Z,8.82
2022-11-28T15:05:45.025Z,9.26
2022-11-28T15:08:30.178Z,9.01
2022-11-28T15:11:19.508Z,8.73
2022-11-28T15:14:12.669Z,7.71
2022-11-28T15:16:50.113Z,8.29
2022-11-28T15:19:20.516Z,7.49
2022-11-28T15:21:51.025Z,7.64
2022-11-28T15:24:28.012Z,7.19
2022-11-28T15:26:58.678Z,8.24
2022-11-28T15:29:31.828Z,7.79
2022-11-28T15:32:00.202Z,8.48
2022-11-28T15:34:38.581Z,7.87
2022-11-28T15:37:17.933Z,8.63
2022-11-28T15:39:50.010Z,9.54
2022-11-28T15:42:22.917Z,7.95
2022-11-28T15:44:59.731Z,8.54
2022-11-28T15:47:28.902Z,8.61
2022-11-28T15:50:17.421Z,7.56
2022-11-28T15:53:18.207Z,8.53
2022-11-28T15:55:45.599Z,8.10
2022-11-28T15:58:20.027Z,8.35
2022-11-28T16:01:27.024Z,9.18
2022-11-28T16:04:03.810Z,8.02
2022-11-28T16:06:34.374Z,7.86
2022-11-28T16:09:07.401Z,6.96
2022-11-28T16:11:35.925Z,7.79
2022-11-28T16:14:11.476Z,8.02
2022-11-28T16:16:39.582Z,7.79
2022-11-28T16:19:18.833Z,7.80
2022-11-28T16:21:54.031Z,8.66
2022-11-28T16:24:33.648Z,8.22
2022-11-28T16:27:06.403Z,9.22
2022-11-28T16:29:36.807Z,8.83
2022-11-28T16:32:22.303Z,9.32
2022-11-28T16:34:52.478Z,8.02
2022-11-28T16:37:31.250Z,9.34
2022-11-28T16:40:01.727Z,9.29
2022-11-28T16:42:29.206Z,8.78
2022-11-28T16:44:57.320Z,8.45
2022-11-28T16:47:30.611Z,8.93
2022-11-28T16:50:20.287Z,8.84
2022-11-28T16:53:00.793Z,8.84
2022-11-28T16:55:30.866Z,7.64
2022-11-28T16:58:13.102Z,8.67
2022-11-28T17:00:48.046Z,8.35
2022-11-28T17:03:46.486Z,8.46
2022-11-28T17:06:20.322Z,8.02
2022-11-28T17:08:47.460Z,9.12
2022-11-28T17:11:17.113Z,8.19
2022-11-28T17:13:44.262Z,8.59
2022-11-28T17:16:21.894Z,8.83
2022-11-28T17:18:49.727Z,8.39
2022-11-28T17:21:27.142Z,7.83
2022-11-28T17:23:54.232Z,9.04
2022-11-28T17:26:21.799Z,9.59
2022-11-28T17:28:48.904Z,9.41
2022-11-28T17:31:16.408Z,9.50
2022-11-28T17:33:44.989Z,8.68
2022-11-28T17:36:12.900Z,8.03
2022-11-28T17:38:40.138Z,9.15
2022-11-28T17:41:13.401Z,8.54
2022-11-28T17:43:41.408Z,9.08
2022-11-28T17:46:09.844Z,8.97
2022-11-28T17:48:37.052Z,8.80
2022-11-28T17:51:04.824Z,8.76
2022-11-28T17:53:32.142Z,9.00
2022-11-28T17:56:00.108Z,8.87
2022-11-28T17:58:27.572Z,8.43
2022-11-28T18:01:00.507Z,8.84
2022-11-28T18:03:28.984Z,9.26
2022-11-28T18:05:57.553Z,9.06
2022-11-28T18:08:24.694Z,9.15
2022-11-28T18:11:02.645Z,9.33
2022-11-28T18:13:30.028Z,9.22
2022-11-28T18:15:58.119Z,9.37
2022-11-28T18:18:25.580Z,9.35
2022-11-28T18:20:53.261Z,9.29
2022-11-28T18:23:20.611Z,9.37
2022-11-28T18:25:48.191Z,8.73
2022-11-28T18:28:18.839Z,9.22
2022-11-28T18:30:48.193Z,9.41
2022-11-28T18:33:16.060Z,9.13
2022-11-28T18:35:43.602Z,9.34
2022-11-28T18:38:14.427Z,9.33
2022-11-28T18:40:42.047Z,9.51
2022-11-28T18:43:10.129Z,8.61
2022-11-28T18:45:39.665Z,8.38
2022-11-28T18:48:12.485Z,8.79
2022-11-28T18:50:39.957Z,8.59
2022-11-28T18:53:07.075Z,7.54
2022-11-28T18:55:34.693Z,8.09
2022-11-28T18:58:03.030Z,8.63
2022-11-28T19:00:30.445Z,7.87
2022-11-28T19:02:57.657Z,7.84
2022-11-28T19:05:38.946Z,8.28
2022-11-28T19:08:09.173Z,7.51
2022-11-28T19:10:40.460Z,6.81
2022-11-28T19:13:09.778Z,6.60
2022-11-28T19:15:41.090Z,6.38
2022-11-28T19:18:08.258Z,6.67
2022-11-28T19:20:36.275Z,7.61
2022-11-28T19:23:03.599Z,7.53
2022-11-28T19:25:32.760Z,6.41
2022-11-28T19:28:03.685Z,7.36
2022-11-28T19:30:32.401Z,7.42
2022-11-28T19:33:00.141Z,7.25
2022-11-28T19:35:30.984Z,7.78
2022-11-28T19:38:01.594Z,8.09
2022-11-28T19:40:29.063Z,7.56
2022-11-28T19:42:59.743Z,7.45
2022-11-28T19:45:27.445Z,7.84
2022-11-28T19:47:54.962Z,8.23
2022-11-28T19:50:22.523Z,7.94
2022-11-28T19:52:49.703Z,8.20
2022-11-28T19:55:17.339Z,7.57
2022-11-28T19:57:44.410Z,7.95
2022-11-28T20:00:12.611Z,7.56
2022-11-28T20:02:39.885Z,7.19
2022-11-28T20:05:07.625Z,6.92
2022-11-28T20:07:35.266Z,7.56
2022-11-28T20:10:02.986Z,7.55
2022-11-28T20:12:30.249Z,7.91
2022-11-28T20:14:58.004Z,7.98
2022-11-28T20:17:25.039Z,8.26
2022-11-28T20:19:52.450Z,8.02
2022-11-28T20:22:23.058Z,8.33
2022-11-28T20:24:51.013Z,8.38
2022-11-28T20:27:18.062Z,8.37
2022-11-28T20:29:45.816Z,8.50
2022-11-28T20:32:13.290Z,8.63
2022-11-28T20:34:40.695Z,8.60
2022-11-28T20:37:07.996Z,8.57
2022-11-28T20:39:35.401Z,8.15
2022-11-28T20:42:02.484Z,6.99
2022-11-28T20:44:29.958Z,6.61
2022-11-28T20:46:57.117Z,7.00
2022-11-28T20:49:24.647Z,7.00
2022-11-28T20:51:51.689Z,7.60
2022-11-28T20:54:19.346Z,8.00
2022-11-28T20:59:35.560Z,7.34
2022-11-28T21:02:02.705Z,6.94
2022-11-28T21:04:30.200Z,7.34
2022-11-28T21:06:57.222Z,7.03
2022-11-28T21:09:24.652Z,7.00
2022-11-28T21:11:59.609Z,7.02
2022-11-28T21:14:29.077Z,7.34
2022-11-28T21:16:57.861Z,7.16
2022-11-28T21:19:25.519Z,6.75
2022-11-28T21:21:52.830Z,7.07
2022-11-28T21:24:20.308Z,6.84
2022-11-28T21:26:53.012Z,6.29
2022-11-28T21:29:22.942Z,6.73
2022-11-28T21:31:50.178Z,6.96
2022-11-28T21:34:19.615Z,6.94
2022-11-28T21:36:47.418Z,7.50
2022-11-28T21:39:18.983Z,7.64
2022-11-28T21:41:46.545Z,6.67
2022-11-28T21:44:14.125Z,7.24
2022-11-28T21:46:41.188Z,7.23
2022-11-28T21:49:08.752Z,7.63
2022-11-28T21:51:36.681Z,7.84
2022-11-28T21:54:04.552Z,7.87
2022-11-28T21:56:31.758Z,7.94
2022-11-28T21:58:59.506Z,7.90
2022-11-28T22:01:26.702Z,7.08
2022-11-28T22:03:57.764Z,6.54
2022-11-28T22:06:29.223Z,7.28
2022-11-28T22:08:57.190Z,6.52
2022-11-28T22:11:24.658Z,6.59
2022-11-28T22:13:53.105Z,7.05
2022-11-28T22:16:21.972Z,6.54
2022-11-28T22:18:51.297Z,6.79
2022-11-28T22:24:06.513Z,6.80
2022-11-28T22:26:34.023Z,6.68
2022-11-28T22:29:01.621Z,6.37
2022-11-28T22:31:28.840Z,5.38
2022-11-28T22:33:56.904Z,5.31
2022-11-28T22:36:24.732Z,5.74
2022-11-28T22:38:56.495Z,5.30
2022-11-28T22:41:29.007Z,6.58
2022-11-28T22:44:00.590Z,4.76
2022-11-28T22:46:28.804Z,5.23
2022-11-28T22:48:56.259Z,5.79
2022-11-28T22:51:25.864Z,5.14
2022-11-28T22:53:55.298Z,5.40
2022-11-28T22:56:22.991Z,5.15
2022-11-28T22:58:50.671Z,5.48
2022-11-28T23:01:21.406Z,5.60
2022-11-28T23:03:49.260Z,4.85
2022-11-28T23:06:18.972Z,3.72
2022-11-28T23:08:47.558Z,3.75
2022-11-28T23:11:17.495Z,4.96
2022-11-28T23:13:48.164Z,5.19
2022-11-28T23:16:20.357Z,4.70
2022-11-28T23:18:50.142Z,5.48
2022-11-28T23:21:19.043Z,5.85
2022-11-28T23:23:46.755Z,6.44
2022-11-28T23:26:16.571Z,5.74
2022-11-28T23:28:45.418Z,5.35
2022-11-28T23:31:21.861Z,6.41
2022-11-28T23:33:49.483Z,6.76
2022-11-28T23:36:19.619Z,6.98
2022-11-28T23:38:49.569Z,7.16
2022-11-28T23:41:17.210Z,6.64
2022-11-28T23:43:45.222Z,6.32
2022-11-28T23:46:14.066Z,6.12
2022-11-28T23:48:42.867Z,5.32
2022-11-28T23:51:10.654Z,4.38
2022-11-28T23:53:38.345Z,4.44
2022-11-28T23:56:20.434Z,1.80
2022-11-28T23:58:48.255Z,2.21
